sensor_id;sensor_type;location;lat;lon;timestamp;P1;durP1;ratioP1;P2;durP2;ratioP2
76604;SDS011;73179;50.978;16.998;2023-12-20T00:01:25;9.93;;;6.68;;
76604;SDS011;73179;50.978;16.998;2023-12-20T00:03:51;8.20;;;6.03;;
76604;SDS011;73179;50.978;16.998;2023-12-20T00:06:18;9.65;;;6.90;;
76604;SDS011;73179;50.978;16.998;2023-12-20T00:08:47;9.73;;;6.65;;
76604;SDS011;73179;50.978;16.998;2023-12-20T00:11:13;11.10;;;7.10;;
76604;SDS011;73179;50.978;16.998;2023-12-20T00:13:39;9.10;;;6.97;;
76604;SDS011;73179;50.978;16.998;2023-12-20T00:16:06;9.90;;;6.88;;
76604;SDS011;73179;50.978;16.998;2023-12-20T00:18:34;10.35;;;6.30;;
76604;SDS011;73179;50.978;16.998;2023-12-20T00:21:00;9.98;;;6.80;;
76604;SDS011;73179;50.978;16.998;2023-12-20T00:23:26;8.52;;;6.47;;
76604;SDS011;73179;50.978;16.998;2023-12-20T00:25:52;10.30;;;7.00;;
76604;SDS011;73179;50.978;16.998;2023-12-20T00:28:21;10.43;;;8.00;;
76604;SDS011;73179;50.978;16.998;2023-12-20T00:30:48;10.35;;;7.03;;
76604;SDS011;73179;50.978;16.998;2023-12-20T00:33:14;9.02;;;6.25;;
76604;SDS011;73179;50.978;16.998;2023-12-20T00:35:41;9.55;;;7.25;;
76604;SDS011;73179;50.978;16.998;2023-12-20T00:38:07;9.13;;;6.72;;
76604;SDS011;73179;50.978;16.998;2023-12-20T00:40:36;12.30;;;7.95;;
76604;SDS011;73179;50.978;16.998;2023-12-20T00:43:02;10.15;;;7.50;;
76604;SDS011;73179;50.978;16.998;2023-12-20T00:45:28;9.77;;;7.25;;
76604;SDS011;73179;50.978;16.998;2023-12-20T00:47:57;10.32;;;7.55;;
76604;SDS011;73179;50.978;16.998;2023-12-20T00:50:25;10.88;;;7.50;;
76604;SDS011;73179;50.978;16.998;2023-12-20T00:52:50;8.93;;;7.07;;
76604;SDS011;73179;50.978;16.998;2023-12-20T00:55:17;10.23;;;7.72;;
76604;SDS011;73179;50.978;16.998;2023-12-20T00:57:43;10.27;;;7.43;;
76604;SDS011;73179;50.978;16.998;2023-12-20T01:00:10;10.52;;;8.13;;
76604;SDS011;73179;50.978;16.998;2023-12-20T01:02:36;11.57;;;8.25;;
76604;SDS011;73179;50.978;16.998;2023-12-20T01:05:06;12.10;;;8.10;;
76604;SDS011;73179;50.978;16.998;2023-12-20T01:07:35;9.98;;;7.75;;
76604;SDS011;73179;50.978;16.998;2023-12-20T01:10:03;10.45;;;7.57;;
76604;SDS011;73179;50.978;16.998;2023-12-20T01:12:32;11.10;;;8.90;;
76604;SDS011;73179;50.978;16.998;2023-12-20T01:14:58;10.18;;;7.70;;
76604;SDS011;73179;50.978;16.998;2023-12-20T01:17:27;12.88;;;7.80;;
76604;SDS011;73179;50.978;16.998;2023-12-20T01:19:54;12.02;;;7.78;;
76604;SDS011;73179;50.978;16.998;2023-12-20T01:22:23;10.20;;;7.53;;
76604;SDS011;73179;50.978;16.998;2023-12-20T01:24:52;10.48;;;7.57;;
76604;SDS011;73179;50.978;16.998;2023-12-20T01:27:18;10.43;;;7.50;;
76604;SDS011;73179;50.978;16.998;2023-12-20T01:29:47;8.93;;;7.00;;
76604;SDS011;73179;50.978;16.998;2023-12-20T01:32:13;11.57;;;7.85;;
76604;SDS011;73179;50.978;16.998;2023-12-20T01:34:39;10.02;;;7.18;;
76604;SDS011;73179;50.978;16.998;2023-12-20T01:37:06;10.63;;;7.25;;
76604;SDS011;73179;50.978;16.998;2023-12-20T01:39:32;10.10;;;7.78;;
76604;SDS011;73179;50.978;16.998;2023-12-20T01:41:58;12.82;;;7.88;;
76604;SDS011;73179;50.978;16.998;2023-12-20T01:44:25;9.48;;;7.20;;
76604;SDS011;73179;50.978;16.998;2023-12-20T01:46:54;11.30;;;7.88;;
76604;SDS011;73179;50.978;16.998;2023-12-20T01:49:26;15.45;;;9.15;;
76604;SDS011;73179;50.978;16.998;2023-12-20T01:51:56;13.23;;;8.75;;
76604;SDS011;73179;50.978;16.998;2023-12-20T01:54:24;11.57;;;7.95;;
76604;SDS011;73179;50.978;16.998;2023-12-20T01:56:53;12.63;;;8.68;;
76604;SDS011;73179;50.978;16.998;2023-12-20T01:59:22;14.13;;;9.82;;
76604;SDS011;73179;50.978;16.998;2023-12-20T02:01:49;11.07;;;8.00;;
76604;SDS011;73179;50.978;16.998;2023-12-20T02:04:16;12.45;;;8.95;;
76604;SDS011;73179;50.978;16.998;2023-12-20T02:06:42;13.30;;;8.55;;
76604;SDS011;73179;50.978;16.998;2023-12-20T02:09:15;18.02;;;10.55;;
76604;SDS011;73179;50.978;16.998;2023-12-20T02:11:42;11.77;;;9.82;;
76604;SDS011;73179;50.978;16.998;2023-12-20T02:14:12;13.32;;;10.82;;
76604;SDS011;73179;50.978;16.998;2023-12-20T02:16:38;15.43;;;11.52;;
76604;SDS011;73179;50.978;16.998;2023-12-20T02:19:09;15.23;;;11.13;;
76604;SDS011;73179;50.978;16.998;2023-12-20T02:21:41;17.75;;;11.73;;
76604;SDS011;73179;50.978;16.998;2023-12-20T02:24:08;16.58;;;12.95;;
76604;SDS011;73179;50.978;16.998;2023-12-20T02:26:34;19.17;;;13.07;;
76604;SDS011;73179;50.978;16.998;2023-12-20T02:29:01;19.58;;;13.00;;
76604;SDS011;73179;50.978;16.998;2023-12-20T02:31:28;22.90;;;14.68;;
76604;SDS011;73179;50.978;16.998;2023-12-20T02:33:55;21.55;;;14.68;;
76604;SDS011;73179;50.978;16.998;2023-12-20T02:36:21;21.08;;;14.60;;
76604;SDS011;73179;50.978;16.998;2023-12-20T02:38:48;19.70;;;14.80;;
76604;SDS011;73179;50.978;16.998;2023-12-20T02:41:15;19.80;;;15.23;;
76604;SDS011;73179;50.978;16.998;2023-12-20T02:43:49;18.90;;;13.15;;
76604;SDS011;73179;50.978;16.998;2023-12-20T02:46:21;20.60;;;12.30;;
76604;SDS011;73179;50.978;16.998;2023-12-20T02:48:52;17.95;;;13.27;;
76604;SDS011;73179;50.978;16.998;2023-12-20T02:51:19;18.45;;;12.27;;
76604;SDS011;73179;50.978;16.998;2023-12-20T02:53:52;18.52;;;12.93;;
76604;SDS011;73179;50.978;16.998;2023-12-20T02:56:18;21.15;;;12.48;;
76604;SDS011;73179;50.978;16.998;2023-12-20T02:58:47;18.85;;;12.48;;
76604;SDS011;73179;50.978;16.998;2023-12-20T03:01:19;16.20;;;12.02;;
76604;SDS011;73179;50.978;16.998;2023-12-20T03:03:46;16.15;;;12.05;;
76604;SDS011;73179;50.978;16.998;2023-12-20T03:06:15;17.50;;;12.25;;
76604;SDS011;73179;50.978;16.998;2023-12-20T03:08:45;19.92;;;12.45;;
76604;SDS011;73179;50.978;16.998;2023-12-20T03:11:11;20.10;;;13.13;;
76604;SDS011;73179;50.978;16.998;2023-12-20T03:13:38;19.17;;;12.95;;
76604;SDS011;73179;50.978;16.998;2023-12-20T03:16:13;18.08;;;13.07;;
76604;SDS011;73179;50.978;16.998;2023-12-20T03:18:40;19.27;;;13.52;;
76604;SDS011;73179;50.978;16.998;2023-12-20T03:21:06;19.50;;;12.55;;
76604;SDS011;73179;50.978;16.998;2023-12-20T03:23:33;16.73;;;11.77;;
76604;SDS011;73179;50.978;16.998;2023-12-20T03:25:59;17.10;;;12.85;;
76604;SDS011;73179;50.978;16.998;2023-12-20T03:28:29;18.77;;;11.73;;
76604;SDS011;73179;50.978;16.998;2023-12-20T03:30:55;17.92;;;12.07;;
76604;SDS011;73179;50.978;16.998;2023-12-20T03:33:25;20.73;;;13.73;;
76604;SDS011;73179;50.978;16.998;2023-12-20T03:35:51;16.88;;;12.77;;
76604;SDS011;73179;50.978;16.998;2023-12-20T03:38:17;17.33;;;12.60;;
76604;SDS011;73179;50.978;16.998;2023-12-20T03:40:46;16.55;;;11.75;;
76604;SDS011;73179;50.978;16.998;2023-12-20T03:43:13;16.33;;;12.38;;
76604;SDS011;73179;50.978;16.998;2023-12-20T03:45:39;19.00;;;12.52;;
76604;SDS011;73179;50.978;16.998;2023-12-20T03:48:06;16.92;;;11.52;;
76604;SDS011;73179;50.978;16.998;2023-12-20T03:50:32;15.68;;;11.48;;
76604;SDS011;73179;50.978;16.998;2023-12-20T03:52:58;15.48;;;10.93;;
76604;SDS011;73179;50.978;16.998;2023-12-20T03:55:26;16.20;;;12.07;;
76604;SDS011;73179;50.978;16.998;2023-12-20T03:57:53;18.13;;;12.20;;
76604;SDS011;73179;50.978;16.998;2023-12-20T04:00:24;17.80;;;11.55;;
76604;SDS011;73179;50.978;16.998;2023-12-20T04:02:51;19.90;;;12.98;;
76604;SDS011;73179;50.978;16.998;2023-12-20T04:05:19;19.70;;;12.48;;
76604;SDS011;73179;50.978;16.998;2023-12-20T04:07:46;20.52;;;11.20;;
76604;SDS011;73179;50.978;16.998;2023-12-20T04:10:12;15.75;;;10.90;;
76604;SDS011;73179;50.978;16.998;2023-12-20T04:12:39;16.67;;;10.55;;
76604;SDS011;73179;50.978;16.998;2023-12-20T04:15:07;13.13;;;9.85;;
76604;SDS011;73179;50.978;16.998;2023-12-20T04:17:36;13.30;;;8.75;;
76604;SDS011;73179;50.978;16.998;2023-12-20T04:20:02;11.93;;;9.25;;
76604;SDS011;73179;50.978;16.998;2023-12-20T04:22:28;11.95;;;8.13;;
76604;SDS011;73179;50.978;16.998;2023-12-20T04:24:54;9.30;;;7.75;;
76604;SDS011;73179;50.978;16.998;2023-12-20T04:27:21;7.60;;;5.78;;
76604;SDS011;73179;50.978;16.998;2023-12-20T04:29:47;8.48;;;5.82;;
76604;SDS011;73179;50.978;16.998;2023-12-20T04:32:14;7.07;;;5.82;;
76604;SDS011;73179;50.978;16.998;2023-12-20T04:34:40;6.60;;;4.85;;
76604;SDS011;73179;50.978;16.998;2023-12-20T04:37:12;5.68;;;4.50;;
76604;SDS011;73179;50.978;16.998;2023-12-20T04:39:39;7.85;;;4.78;;
76604;SDS011;73179;50.978;16.998;2023-12-20T04:42:09;5.53;;;3.85;;
76604;SDS011;73179;50.978;16.998;2023-12-20T04:44:35;5.82;;;4.07;;
76604;SDS011;73179;50.978;16.998;2023-12-20T04:47:04;4.95;;;3.95;;
76604;SDS011;73179;50.978;16.998;2023-12-20T04:49:30;5.53;;;3.78;;
76604;SDS011;73179;50.978;16.998;2023-12-20T04:51:59;5.03;;;3.33;;
76604;SDS011;73179;50.978;16.998;2023-12-20T04:54:25;5.40;;;3.03;;
76604;SDS011;73179;50.978;16.998;2023-12-20T04:56:52;3.85;;;2.97;;
76604;SDS011;73179;50.978;16.998;2023-12-20T04:59:18;4.38;;;2.45;;
76604;SDS011;73179;50.978;16.998;2023-12-20T05:01:44;3.65;;;2.70;;
76604;SDS011;73179;50.978;16.998;2023-12-20T05:04:13;3.50;;;2.50;;
76604;SDS011;73179;50.978;16.998;2023-12-20T05:06:40;3.67;;;2.60;;
76604;SDS011;73179;50.978;16.998;2023-12-20T05:09:06;3.22;;;2.22;;
76604;SDS011;73179;50.978;16.998;2023-12-20T05:11:33;3.50;;;2.80;;
76604;SDS011;73179;50.978;16.998;2023-12-20T05:13:59;4.05;;;3.05;;
76604;SDS011;73179;50.978;16.998;2023-12-20T05:16:26;4.10;;;2.70;;
76604;SDS011;73179;50.978;16.998;2023-12-20T05:18:52;4.65;;;2.95;;
76604;SDS011;73179;50.978;16.998;2023-12-20T05:21:21;4.78;;;3.30;;
76604;SDS011;73179;50.978;16.998;2023-12-20T05:23:47;6.05;;;4.10;;
76604;SDS011;73179;50.978;16.998;2023-12-20T05:26:18;5.20;;;4.13;;
76604;SDS011;73179;50.978;16.998;2023-12-20T05:28:55;7.05;;;4.70;;
76604;SDS011;73179;50.978;16.998;2023-12-20T05:31:22;7.90;;;4.75;;
76604;SDS011;73179;50.978;16.998;2023-12-20T05:33:54;8.05;;;4.93;;
76604;SDS011;73179;50.978;16.998;2023-12-20T05:36:21;6.90;;;4.35;;
76604;SDS011;73179;50.978;16.998;2023-12-20T05:38:50;7.57;;;4.63;;
76604;SDS011;73179;50.978;16.998;2023-12-20T05:41:17;8.40;;;5.43;;
76604;SDS011;73179;50.978;16.998;2023-12-20T05:44:02;7.25;;;4.75;;
76604;SDS011;73179;50.978;16.998;2023-12-20T05:46:30;8.23;;;5.70;;
76604;SDS011;73179;50.978;16.998;2023-12-20T05:48:56;9.00;;;6.43;;
76604;SDS011;73179;50.978;16.998;2023-12-20T05:51:25;8.00;;;5.03;;
76604;SDS011;73179;50.978;16.998;2023-12-20T05:53:54;6.05;;;4.13;;
76604;SDS011;73179;50.978;16.998;2023-12-20T05:56:26;5.45;;;4.03;;
76604;SDS011;73179;50.978;16.998;2023-12-20T05:58:53;6.35;;;4.40;;
76604;SDS011;73179;50.978;16.998;2023-12-20T06:01:22;5.53;;;3.60;;
76604;SDS011;73179;50.978;16.998;2023-12-20T06:06:21;5.03;;;3.30;;
76604;SDS011;73179;50.978;16.998;2023-12-20T06:08:47;4.85;;;3.60;;
76604;SDS011;73179;50.978;16.998;2023-12-20T06:11:15;4.38;;;3.30;;
76604;SDS011;73179;50.978;16.998;2023-12-20T06:13:41;4.35;;;3.25;;
76604;SDS011;73179;50.978;16.998;2023-12-20T06:16:08;3.80;;;3.30;;
76604;SDS011;73179;50.978;16.998;2023-12-20T06:18:34;5.30;;;3.53;;
76604;SDS011;73179;50.978;16.998;2023-12-20T06:21:00;6.70;;;4.25;;
76604;SDS011;73179;50.978;16.998;2023-12-20T06:23:26;8.65;;;4.78;;
76604;SDS011;73179;50.978;16.998;2023-12-20T06:25:56;6.68;;;4.63;;
76604;SDS011;73179;50.978;16.998;2023-12-20T06:28:22;6.22;;;3.90;;
76604;SDS011;73179;50.978;16.998;2023-12-20T06:30:49;6.10;;;4.47;;
76604;SDS011;73179;50.978;16.998;2023-12-20T06:33:15;6.88;;;4.70;;
76604;SDS011;73179;50.978;16.998;2023-12-20T06:35:46;5.63;;;3.92;;
76604;SDS011;73179;50.978;16.998;2023-12-20T06:38:14;6.32;;;4.68;;
76604;SDS011;73179;50.978;16.998;2023-12-20T06:40:44;6.22;;;4.18;;
76604;SDS011;73179;50.978;16.998;2023-12-20T06:43:13;6.82;;;4.63;;
76604;SDS011;73179;50.978;16.998;2023-12-20T06:45:40;6.63;;;4.25;;
76604;SDS011;73179;50.978;16.998;2023-12-20T06:48:06;5.82;;;3.90;;
76604;SDS011;73179;50.978;16.998;2023-12-20T06:50:33;6.22;;;4.28;;
76604;SDS011;73179;50.978;16.998;2023-12-20T06:52:59;7.28;;;4.93;;
76604;SDS011;73179;50.978;16.998;2023-12-20T06:55:35;4.65;;;3.78;;
76604;SDS011;73179;50.978;16.998;2023-12-20T06:58:03;5.95;;;3.80;;
76604;SDS011;73179;50.978;16.998;2023-12-20T07:00:30;6.05;;;3.63;;
76604;SDS011;73179;50.978;16.998;2023-12-20T07:02:57;5.40;;;3.42;;
76604;SDS011;73179;50.978;16.998;2023-12-20T07:05:24;4.82;;;3.33;;
76604;SDS011;73179;50.978;16.998;2023-12-20T07:07:50;4.85;;;3.42;;
76604;SDS011;73179;50.978;16.998;2023-12-20T07:10:19;4.75;;;3.03;;
76604;SDS011;73179;50.978;16.998;2023-12-20T07:12:45;4.43;;;3.10;;
76604;SDS011;73179;50.978;16.998;2023-12-20T07:15:11;4.03;;;3.22;;
76604;SDS011;73179;50.978;16.998;2023-12-20T07:17:38;5.00;;;3.13;;
76604;SDS011;73179;50.978;16.998;2023-12-20T07:20:07;4.63;;;2.55;;
76604;SDS011;73179;50.978;16.998;2023-12-20T07:22:36;5.15;;;2.72;;
76604;SDS011;73179;50.978;16.998;2023-12-20T07:25:07;3.45;;;2.75;;
76604;SDS011;73179;50.978;16.998;2023-12-20T07:27:39;4.45;;;2.80;;
76604;SDS011;73179;50.978;16.998;2023-12-20T07:30:07;4.38;;;3.00;;
76604;SDS011;73179;50.978;16.998;2023-12-20T07:32:36;5.00;;;3.08;;
76604;SDS011;73179;50.978;16.998;2023-12-20T07:35:07;5.82;;;3.85;;
76604;SDS011;73179;50.978;16.998;2023-12-20T07:55:09;4.80;;;3.07;;
76604;SDS011;73179;50.978;16.998;2023-12-20T07:57:35;5.57;;;3.50;;
76604;SDS011;73179;50.978;16.998;2023-12-20T08:00:01;4.78;;;3.00;;
76604;SDS011;73179;50.978;16.998;2023-12-20T08:02:29;4.65;;;3.33;;
76604;SDS011;73179;50.978;16.998;2023-12-20T08:04:55;4.50;;;2.80;;
76604;SDS011;73179;50.978;16.998;2023-12-20T08:07:21;5.25;;;3.17;;
76604;SDS011;73179;50.978;16.998;2023-12-20T08:09:47;4.00;;;3.03;;
76604;SDS011;73179;50.978;16.998;2023-12-20T08:12:13;4.03;;;3.03;;
76604;SDS011;73179;50.978;16.998;2023-12-20T08:14:39;5.45;;;3.65;;
76604;SDS011;73179;50.978;16.998;2023-12-20T08:17:05;5.00;;;3.80;;
76604;SDS011;73179;50.978;16.998;2023-12-20T08:19:31;5.35;;;3.30;;
76604;SDS011;73179;50.978;16.998;2023-12-20T08:21:58;4.72;;;3.75;;
76604;SDS011;73179;50.978;16.998;2023-12-20T08:24:24;5.82;;;3.45;;
76604;SDS011;73179;50.978;16.998;2023-12-20T08:39:36;6.32;;;3.20;;
76604;SDS011;73179;50.978;16.998;2023-12-20T08:42:02;4.15;;;3.10;;
76604;SDS011;73179;50.978;16.998;2023-12-20T08:44:29;4.18;;;2.65;;
76604;SDS011;73179;50.978;16.998;2023-12-20T08:46:55;5.07;;;3.00;;
76604;SDS011;73179;50.978;16.998;2023-12-20T08:49:24;5.75;;;3.38;;
76604;SDS011;73179;50.978;16.998;2023-12-20T08:51:51;5.28;;;3.10;;
76604;SDS011;73179;50.978;16.998;2023-12-20T08:54:17;6.47;;;3.70;;
76604;SDS011;73179;50.978;16.998;2023-12-20T08:56:45;4.63;;;3.20;;
76604;SDS011;73179;50.978;16.998;2023-12-20T08:59:11;5.07;;;3.20;;
76604;SDS011;73179;50.978;16.998;2023-12-20T09:01:38;5.05;;;2.88;;
76604;SDS011;73179;50.978;16.998;2023-12-20T09:04:04;4.43;;;2.70;;
76604;SDS011;73179;50.978;16.998;2023-12-20T09:06:32;3.30;;;2.25;;
76604;SDS011;73179;50.978;16.998;2023-12-20T09:08:57;3.75;;;2.25;;
76604;SDS011;73179;50.978;16.998;2023-12-20T09:11:24;4.78;;;2.50;;
76604;SDS011;73179;50.978;16.998;2023-12-20T09:13:50;3.15;;;1.85;;
76604;SDS011;73179;50.978;16.998;2023-12-20T09:16:16;3.63;;;2.10;;
76604;SDS011;73179;50.978;16.998;2023-12-20T09:18:42;3.00;;;1.88;;
76604;SDS011;73179;50.978;16.998;2023-12-20T09:21:08;3.05;;;1.77;;
76604;SDS011;73179;50.978;16.998;2023-12-20T09:23:34;2.65;;;2.13;;
76604;SDS011;73179;50.978;16.998;2023-12-20T09:26:02;2.33;;;1.73;;
76604;SDS011;73179;50.978;16.998;2023-12-20T09:28:28;3.25;;;1.83;;
76604;SDS011;73179;50.978;16.998;2023-12-20T09:30:54;2.92;;;1.70;;
76604;SDS011;73179;50.978;16.998;2023-12-20T09:33:20;2.58;;;1.65;;
76604;SDS011;73179;50.978;16.998;2023-12-20T09:35:46;3.50;;;1.95;;
76604;SDS011;73179;50.978;16.998;2023-12-20T09:38:12;2.65;;;1.60;;
76604;SDS011;73179;50.978;16.998;2023-12-20T09:40:41;3.03;;;1.83;;
76604;SDS011;73179;50.978;16.998;2023-12-20T09:43:11;3.50;;;1.90;;
76604;SDS011;73179;50.978;16.998;2023-12-20T09:45:41;2.53;;;1.60;;
76604;SDS011;73179;50.978;16.998;2023-12-20T09:48:11;2.58;;;1.83;;
76604;SDS011;73179;50.978;16.998;2023-12-20T09:50:37;3.63;;;2.35;;
76604;SDS011;73179;50.978;16.998;2023-12-20T09:53:04;3.47;;;1.90;;
76604;SDS011;73179;50.978;16.998;2023-12-20T09:55:35;2.40;;;1.80;;
76604;SDS011;73179;50.978;16.998;2023-12-20T09:58:02;2.78;;;1.90;;
76604;SDS011;73179;50.978;16.998;2023-12-20T10:00:28;2.88;;;2.08;;
76604;SDS011;73179;50.978;16.998;2023-12-20T10:02:57;2.45;;;1.90;;
76604;SDS011;73179;50.978;16.998;2023-12-20T10:05:29;2.08;;;1.50;;
76604;SDS011;73179;50.978;16.998;2023-12-20T10:07:57;2.70;;;1.60;;
76604;SDS011;73179;50.978;16.998;2023-12-20T10:10:24;2.50;;;1.60;;
76604;SDS011;73179;50.978;16.998;2023-12-20T10:13:09;3.25;;;1.88;;
76604;SDS011;73179;50.978;16.998;2023-12-20T10:15:37;2.80;;;1.50;;
76604;SDS011;73179;50.978;16.998;2023-12-20T10:18:04;2.00;;;1.50;;
76604;SDS011;73179;50.978;16.998;2023-12-20T10:20:31;2.75;;;1.52;;
76604;SDS011;73179;50.978;16.998;2023-12-20T10:22:57;2.42;;;1.55;;
76604;SDS011;73179;50.978;16.998;2023-12-20T10:25:24;2.45;;;1.45;;
76604;SDS011;73179;50.978;16.998;2023-12-20T10:28:08;4.78;;;1.70;;
76604;SDS011;73179;50.978;16.998;2023-12-20T10:30:36;3.25;;;1.77;;
76604;SDS011;73179;50.978;16.998;2023-12-20T10:33:03;3.05;;;1.77;;
76604;SDS011;73179;50.978;16.998;2023-12-20T10:35:34;2.30;;;1.55;;
76604;SDS011;73179;50.978;16.998;2023-12-20T10:38:02;3.30;;;1.88;;
76604;SDS011;73179;50.978;16.998;2023-12-20T10:40:30;3.10;;;1.70;;
76604;SDS011;73179;50.978;16.998;2023-12-20T10:42:56;2.45;;;1.80;;
76604;SDS011;73179;50.978;16.998;2023-12-20T10:45:25;4.25;;;2.10;;
76604;SDS011;73179;50.978;16.998;2023-12-20T10:47:51;3.53;;;2.30;;
76604;SDS011;73179;50.978;16.998;2023-12-20T10:50:19;4.13;;;2.10;;
76604;SDS011;73179;50.978;16.998;2023-12-20T10:52:46;4.68;;;1.92;;
76604;SDS011;73179;50.978;16.998;2023-12-20T10:55:13;2.67;;;2.05;;
76604;SDS011;73179;50.978;16.998;2023-12-20T10:57:39;6.05;;;2.40;;
76604;SDS011;73179;50.978;16.998;2023-12-20T11:00:09;3.70;;;2.10;;
76604;SDS011;73179;50.978;16.998;2023-12-20T11:02:40;4.00;;;2.08;;
76604;SDS011;73179;50.978;16.998;2023-12-20T11:05:16;5.13;;;2.20;;
76604;SDS011;73179;50.978;16.998;2023-12-20T11:07:48;4.05;;;2.42;;
76604;SDS011;73179;50.978;16.998;2023-12-20T11:10:43;2.83;;;1.80;;
76604;SDS011;73179;50.978;16.998;2023-12-20T11:13:22;4.35;;;1.98;;
76604;SDS011;73179;50.978;16.998;2023-12-20T11:15:53;4.90;;;2.08;;
76604;SDS011;73179;50.978;16.998;2023-12-20T11:18:19;3.67;;;2.10;;
76604;SDS011;73179;50.978;16.998;2023-12-20T11:20:46;5.78;;;2.28;;
76604;SDS011;73179;50.978;16.998;2023-12-20T11:23:11;6.07;;;2.05;;
76604;SDS011;73179;50.978;16.998;2023-12-20T11:25:48;4.15;;;2.08;;
76604;SDS011;73179;50.978;16.998;2023-12-20T11:28:23;8.50;;;2.90;;
76604;SDS011;73179;50.978;16.998;2023-12-20T11:33:20;3.47;;;2.30;;
76604;SDS011;73179;50.978;16.998;2023-12-20T11:35:48;3.35;;;2.00;;
76604;SDS011;73179;50.978;16.998;2023-12-20T11:38:14;5.35;;;2.10;;
76604;SDS011;73179;50.978;16.998;2023-12-20T11:40:41;3.35;;;1.90;;
76604;SDS011;73179;50.978;16.998;2023-12-20T11:43:08;4.82;;;2.45;;
76604;SDS011;73179;50.978;16.998;2023-12-20T11:45:35;4.18;;;2.28;;
76604;SDS011;73179;50.978;16.998;2023-12-20T11:48:01;3.13;;;2.28;;
76604;SDS011;73179;50.978;16.998;2023-12-20T11:50:28;3.63;;;2.47;;
76604;SDS011;73179;50.978;16.998;2023-12-20T11:52:58;4.75;;;2.30;;
76604;SDS011;73179;50.978;16.998;2023-12-20T11:55:24;5.10;;;2.20;;
76604;SDS011;73179;50.978;16.998;2023-12-20T11:57:50;6.43;;;2.85;;
76604;SDS011;73179;50.978;16.998;2023-12-20T12:00:17;3.53;;;2.15;;
76604;SDS011;73179;50.978;16.998;2023-12-20T12:02:45;3.92;;;2.35;;
76604;SDS011;73179;50.978;16.998;2023-12-20T12:05:22;3.83;;;2.28;;
76604;SDS011;73179;50.978;16.998;2023-12-20T12:07:48;4.30;;;2.50;;
76604;SDS011;73179;50.978;16.998;2023-12-20T12:10:14;3.95;;;2.58;;
76604;SDS011;73179;50.978;16.998;2023-12-20T12:12:40;3.42;;;2.40;;
76604;SDS011;73179;50.978;16.998;2023-12-20T12:15:07;3.78;;;2.15;;
76604;SDS011;73179;50.978;16.998;2023-12-20T12:17:34;2.75;;;1.80;;
76604;SDS011;73179;50.978;16.998;2023-12-20T12:20:04;2.63;;;1.80;;
76604;SDS011;73179;50.978;16.998;2023-12-20T12:22:31;3.88;;;2.05;;
76604;SDS011;73179;50.978;16.998;2023-12-20T12:24:59;3.70;;;1.90;;
76604;SDS011;73179;50.978;16.998;2023-12-20T12:27:35;3.35;;;1.90;;
76604;SDS011;73179;50.978;16.998;2023-12-20T12:33:11;4.60;;;2.83;;
76604;SDS011;73179;50.978;16.998;2023-12-20T12:35:50;3.85;;;2.30;;
76604;SDS011;73179;50.978;16.998;2023-12-20T12:38:19;3.15;;;2.03;;
76604;SDS011;73179;50.978;16.998;2023-12-20T12:40:46;3.85;;;2.25;;
76604;SDS011;73179;50.978;16.998;2023-12-20T12:43:12;3.80;;;2.67;;
76604;SDS011;73179;50.978;16.998;2023-12-20T12:45:39;3.00;;;2.15;;
76604;SDS011;73179;50.978;16.998;2023-12-20T12:48:05;5.63;;;2.60;;
76604;SDS011;73179;50.978;16.998;2023-12-20T12:50:32;3.67;;;2.60;;
76604;SDS011;73179;50.978;16.998;2023-12-20T12:52:57;4.13;;;1.63;;
76604;SDS011;73179;50.978;16.998;2023-12-20T12:55:24;2.85;;;1.80;;
76604;SDS011;73179;50.978;16.998;2023-12-20T12:57:50;4.88;;;2.40;;
76604;SDS011;73179;50.978;16.998;2023-12-20T13:00:16;7.65;;;2.50;;
76604;SDS011;73179;50.978;16.998;2023-12-20T13:02:42;6.70;;;2.72;;
76604;SDS011;73179;50.978;16.998;2023-12-20T13:05:09;6.03;;;2.10;;
76604;SDS011;73179;50.978;16.998;2023-12-20T13:07:35;5.32;;;2.17;;
76604;SDS011;73179;50.978;16.998;2023-12-20T13:10:01;4.45;;;2.20;;
76604;SDS011;73179;50.978;16.998;2023-12-20T13:12:27;3.88;;;1.98;;
76604;SDS011;73179;50.978;16.998;2023-12-20T13:14:54;3.17;;;1.83;;
76604;SDS011;73179;50.978;16.998;2023-12-20T13:17:20;3.83;;;2.15;;
76604;SDS011;73179;50.978;16.998;2023-12-20T13:19:46;6.57;;;2.10;;
76604;SDS011;73179;50.978;16.998;2023-12-20T13:22:12;4.30;;;2.08;;
76604;SDS011;73179;50.978;16.998;2023-12-20T13:24:39;4.10;;;2.20;;
76604;SDS011;73179;50.978;16.998;2023-12-20T13:27:05;4.97;;;2.10;;
76604;SDS011;73179;50.978;16.998;2023-12-20T13:29:32;4.28;;;2.20;;
76604;SDS011;73179;50.978;16.998;2023-12-20T13:32:00;6.32;;;2.42;;
76604;SDS011;73179;50.978;16.998;2023-12-20T13:34:27;3.65;;;1.90;;
76604;SDS011;73179;50.978;16.998;2023-12-20T13:36:52;6.28;;;2.17;;
76604;SDS011;73179;50.978;16.998;2023-12-20T13:39:19;8.57;;;1.92;;
76604;SDS011;73179;50.978;16.998;2023-12-20T13:41:45;4.93;;;1.95;;
76604;SDS011;73179;50.978;16.998;2023-12-20T13:44:11;7.07;;;2.33;;
76604;SDS011;73179;50.978;16.998;2023-12-20T13:46:37;5.45;;;2.30;;
76604;SDS011;73179;50.978;16.998;2023-12-20T13:49:04;4.68;;;2.63;;
76604;SDS011;73179;50.978;16.998;2023-12-20T13:51:30;5.43;;;1.80;;
76604;SDS011;73179;50.978;16.998;2023-12-20T13:53:57;3.70;;;2.22;;
76604;SDS011;73179;50.978;16.998;2023-12-20T13:56:23;7.07;;;2.22;;
76604;SDS011;73179;50.978;16.998;2023-12-20T13:58:49;3.90;;;2.10;;
76604;SDS011;73179;50.978;16.998;2023-12-20T14:01:16;4.90;;;2.28;;
76604;SDS011;73179;50.978;16.998;2023-12-20T14:03:42;10.48;;;2.53;;
76604;SDS011;73179;50.978;16.998;2023-12-20T14:06:08;4.97;;;2.33;;
76604;SDS011;73179;50.978;16.998;2023-12-20T14:08:35;6.47;;;2.05;;
76604;SDS011;73179;50.978;16.998;2023-12-20T14:11:01;3.72;;;1.98;;
76604;SDS011;73179;50.978;16.998;2023-12-20T14:13:28;7.35;;;2.42;;
76604;SDS011;73179;50.978;16.998;2023-12-20T14:15:54;4.30;;;2.40;;
76604;SDS011;73179;50.978;16.998;2023-12-20T14:18:23;3.25;;;2.10;;
76604;SDS011;73179;50.978;16.998;2023-12-20T14:20:49;3.95;;;2.20;;
76604;SDS011;73179;50.978;16.998;2023-12-20T14:23:16;5.22;;;2.97;;
76604;SDS011;73179;50.978;16.998;2023-12-20T14:25:42;3.65;;;1.73;;
76604;SDS011;73179;50.978;16.998;2023-12-20T14:28:08;4.47;;;2.20;;
76604;SDS011;73179;50.978;16.998;2023-12-20T14:30:35;4.47;;;2.45;;
76604;SDS011;73179;50.978;16.998;2023-12-20T14:33:04;3.08;;;1.92;;
76604;SDS011;73179;50.978;16.998;2023-12-20T14:35:30;4.78;;;2.67;;
76604;SDS011;73179;50.978;16.998;2023-12-20T14:37:57;5.20;;;2.40;;
76604;SDS011;73179;50.978;16.998;2023-12-20T14:40:23;9.13;;;3.30;;
76604;SDS011;73179;50.978;16.998;2023-12-20T14:42:49;5.20;;;2.90;;
76604;SDS011;73179;50.978;16.998;2023-12-20T14:45:16;6.03;;;2.63;;
76604;SDS011;73179;50.978;16.998;2023-12-20T14:47:43;4.68;;;2.50;;
76604;SDS011;73179;50.978;16.998;2023-12-20T14:50:09;6.15;;;2.22;;
76604;SDS011;73179;50.978;16.998;2023-12-20T14:52:38;5.00;;;2.00;;
76604;SDS011;73179;50.978;16.998;2023-12-20T14:55:05;3.05;;;2.20;;
76604;SDS011;73179;50.978;16.998;2023-12-20T14:57:31;3.22;;;1.80;;
76604;SDS011;73179;50.978;16.998;2023-12-20T14:59:57;3.40;;;2.40;;
76604;SDS011;73179;50.978;16.998;2023-12-20T15:02:24;4.07;;;2.20;;
76604;SDS011;73179;50.978;16.998;2023-12-20T15:04:50;3.90;;;2.20;;
76604;SDS011;73179;50.978;16.998;2023-12-20T15:07:17;8.43;;;2.13;;
76604;SDS011;73179;50.978;16.998;2023-12-20T15:09:43;4.18;;;2.33;;